Time;durP1;ratioP1;P1;durP2;ratioP2;P2;SDS_P1;SDS_P2;PMS_P1;PMS_P2;Temp;Humidity;BMP_temperature;BMP_pressure;BME280_temperature;BME280_humidity;BME280_pressure;Samples;Min_cycle;Max_cycle;Signal;HPM_P1;HPM_P2
2022/03/20 00:00:30;;;;;;;33.38;16.08;;;;;;;;;;5050491;28;20021;-70
2022/03/20 00:02:56;;;;;;;32.60;16.02;;;;;;;;;;5051644;28;20025;-70
2022/03/20 00:05:22;;;;;;;30.83;15.73;;;;;;;;;;5051952;28;20021;-70
2022/03/20 00:07:47;;;;;;;33.75;17.00;;;;;;;;;;5052500;28;20017;-71
2022/03/20 00:10:14;;;;;;;32.25;16.20;;;;;;;;;;5051734;28;20035;-70
2022/03/20 00:12:39;;;;;;;33.55;17.35;;;;;;;;;;5051790;28;20021;-70
2022/03/20 00:15:05;;;;;;;27.63;14.10;;;;;;;;;;5050194;28;20071;-69
2022/03/20 00:17:30;;;;;;;32.30;15.23;;;;;;;;;;5051850;28;20043;-69
2022/03/20 00:19:56;;;;;;;36.70;16.73;;;;;;;;;;5051114;28;20040;-70
2022/03/20 00:22:21;;;;;;;31.88;16.60;;;;;;;;;;5050087;28;20492;-69
2022/03/20 00:24:47;;;;;;;33.40;15.10;;;;;;;;;;5051415;28;20067;-69
2022/03/20 00:27:13;;;;;;;25.95;13.75;;;;;;;;;;5051235;28;20115;-69
2022/03/20 00:29:39;;;;;;;34.72;15.48;;;;;;;;;;5049758;28;20404;-69
2022/03/20 00:32:05;;;;;;;40.28;16.83;;;;;;;;;;5033143;28;20025;-70
2022/03/20 00:34:30;;;;;;;36.95;17.02;;;;;;;;;;5051066;28;20055;-69
2022/03/20 00:36:56;;;;;;;31.85;17.58;;;;;;;;;;5049983;28;20500;-70
2022/03/20 00:39:21;;;;;;;33.80;17.33;;;;;;;;;;5051445;28;20021;-70
2022/03/20 00:41:46;;;;;;;34.40;16.38;;;;;;;;;;5051557;28;20025;-71
2022/03/20 00:44:11;;;;;;;33.67;13.40;;;;;;;;;;5051294;28;20021;-70
2022/03/20 00:46:38;;;;;;;36.60;16.40;;;;;;;;;;5051010;28;20025;-70
2022/03/20 00:49:03;;;;;;;38.03;17.75;;;;;;;;;;5051113;28;20017;-70
2022/03/20 00:51:28;;;;;;;41.63;15.50;;;;;;;;;;5051024;28;20487;-70
2022/03/20 00:53:54;;;;;;;32.20;15.63;;;;;;;;;;5050619;28;20033;-70
2022/03/20 00:56:19;;;;;;;30.45;17.38;;;;;;;;;;5050908;28;20095;-69
2022/03/20 00:58:46;;;;;;;33.33;16.40;;;;;;;;;;5050577;28;20040;-69
2022/03/20 01:01:14;;;;;;;41.90;16.52;;;;;;;;;;5050609;28;20111;-70
2022/03/20 01:03:39;;;;;;;33.60;13.63;;;;;;;;;;5049400;28;20028;-70
2022/03/20 01:06:06;;;;;;;34.72;15.43;;;;;;;;;;5050718;28;20071;-68
2022/03/20 01:08:32;;;;;;;32.00;15.95;;;;;;;;;;5050863;28;20639;-68
2022/03/20 01:10:57;;;;;;;28.38;14.85;;;;;;;;;;5050395;28;20062;-69
2022/03/20 01:13:23;;;;;;;43.55;15.93;;;;;;;;;;5050816;28;20021;-70
2022/03/20 01:15:49;;;;;;;27.88;15.35;;;;;;;;;;5050661;28;20040;-70
2022/03/20 01:18:14;;;;;;;33.00;14.48;;;;;;;;;;5050340;28;20474;-70
2022/03/20 01:20:39;;;;;;;37.33;15.23;;;;;;;;;;5050624;28;20040;-68
2022/03/20 01:23:05;;;;;;;36.50;16.63;;;;;;;;;;5050256;28;20028;-68
2022/03/20 01:25:30;;;;;;;34.13;16.65;;;;;;;;;;5050391;28;20013;-68
2022/03/20 01:27:55;;;;;;;37.85;14.68;;;;;;;;;;5048948;28;20473;-69
2022/03/20 01:30:21;;;;;;;30.30;14.75;;;;;;;;;;5050022;28;20044;-68
2022/03/20 01:32:46;;;;;;;30.17;15.13;;;;;;;;;;5049273;28;20466;-69
2022/03/20 01:35:11;;;;;;;29.90;14.30;;;;;;;;;;5050297;28;20421;-67
2022/03/20 01:37:36;;;;;;;37.28;15.23;;;;;;;;;;5050284;28;20087;-68
2022/03/20 01:40:03;;;;;;;30.75;15.18;;;;;;;;;;5046970;28;20044;-67
2022/03/20 01:42:28;;;;;;;30.42;14.73;;;;;;;;;;5050371;28;20350;-67
2022/03/20 01:44:54;;;;;;;31.88;15.27;;;;;;;;;;5050302;28;20016;-69
2022/03/20 01:47:19;;;;;;;32.65;14.05;;;;;;;;;;5050188;28;20013;-69
2022/03/20 01:49:45;;;;;;;31.40;14.18;;;;;;;;;;5049357;28;20024;-67
2022/03/20 01:52:10;;;;;;;33.42;17.30;;;;;;;;;;5049719;28;20449;-68
2022/03/20 01:54:36;;;;;;;32.63;15.07;;;;;;;;;;5049894;28;20021;-69
2022/03/20 01:57:01;;;;;;;32.78;15.05;;;;;;;;;;5049778;28;20378;-67
2022/03/20 01:59:26;;;;;;;38.75;15.23;;;;;;;;;;5049768;28;20025;-68
2022/03/20 02:01:51;;;;;;;27.85;13.77;;;;;;;;;;5049641;28;20123;-68
2022/03/20 02:04:16;;;;;;;30.65;13.07;;;;;;;;;;5050210;28;20516;-68
2022/03/20 02:06:42;;;;;;;31.42;14.40;;;;;;;;;;5049968;28;20025;-68
2022/03/20 02:09:08;;;;;;;33.30;15.25;;;;;;;;;;5049607;28;20029;-68
2022/03/20 02:11:33;;;;;;;29.67;14.27;;;;;;;;;;5049887;28;20067;-68
2022/03/20 02:13:59;;;;;;;32.15;15.00;;;;;;;;;;5049964;28;20028;-68
2022/03/20 02:16:24;;;;;;;29.52;13.85;;;;;;;;;;5049626;28;20021;-69
2022/03/20 02:18:50;;;;;;;35.42;14.32;;;;;;;;;;5049422;28;20021;-69
2022/03/20 02:21:16;;;;;;;34.20;15.65;;;;;;;;;;5048235;28;20040;-69
2022/03/20 02:23:43;;;;;;;32.72;15.45;;;;;;;;;;5052712;28;20017;-68
2022/03/20 02:26:08;;;;;;;29.83;14.70;;;;;;;;;;5053816;28;20052;-68
2022/03/20 02:28:33;;;;;;;31.63;15.18;;;;;;;;;;5052198;28;20045;-68
2022/03/20 02:30:59;;;;;;;32.70;14.85;;;;;;;;;;5053500;28;20021;-68
2022/03/20 02:33:27;;;;;;;34.72;15.57;;;;;;;;;;5053576;28;20028;-68
2022/03/20 02:35:53;;;;;;;28.05;14.05;;;;;;;;;;5053115;28;20025;-68
2022/03/20 02:38:20;;;;;;;30.42;14.65;;;;;;;;;;5053420;28;20029;-68
2022/03/20 02:40:45;;;;;;;32.17;15.32;;;;;;;;;;5051327;28;20041;-68
2022/03/20 02:43:10;;;;;;;37.83;15.35;;;;;;;;;;5053640;28;20086;-68
2022/03/20 02:45:36;;;;;;;30.58;14.25;;;;;;;;;;5052956;28;20025;-68
2022/03/20 02:48:04;;;;;;;30.38;14.02;;;;;;;;;;5053032;28;20021;-68
2022/03/20 02:50:30;;;;;;;34.58;14.43;;;;;;;;;;5053012;28;20104;-68
2022/03/20 02:52:58;;;;;;;34.65;15.77;;;;;;;;;;5052770;28;20385;-68
2022/03/20 02:55:27;;;;;;;33.22;16.63;;;;;;;;;;5053172;28;20021;-68
2022/03/20 02:57:53;;;;;;;31.63;14.90;;;;;;;;;;5052705;28;20486;-68
2022/03/20 03:00:21;;;;;;;41.08;16.40;;;;;;;;;;5052520;28;20063;-69
2022/03/20 03:02:47;;;;;;;35.42;15.00;;;;;;;;;;5052942;28;20112;-68
2022/03/20 03:05:14;;;;;;;32.05;15.23;;;;;;;;;;5053452;28;20113;-68
2022/03/20 03:13:12;;;;;;;31.67;14.20;;;;;;;;;;5052942;28;20074;-68
2022/03/20 03:15:37;;;;;;;35.38;16.13;;;;;;;;;;5052676;28;20070;-68
2022/03/20 03:18:02;;;;;;;33.00;16.27;;;;;;;;;;5052457;28;20021;-68
2022/03/20 03:20:28;;;;;;;30.33;15.18;;;;;;;;;;5052366;28;20087;-68
2022/03/20 03:22:53;;;;;;;36.40;15.93;;;;;;;;;;5052432;28;20035;-69
2022/03/20 03:25:18;;;;;;;33.95;16.10;;;;;;;;;;5052342;28;20025;-68
2022/03/20 03:27:43;;;;;;;34.88;15.70;;;;;;;;;;5052242;28;20424;-68
2022/03/20 03:30:09;;;;;;;36.67;17.00;;;;;;;;;;5053114;28;20423;-69
2022/03/20 03:32:34;;;;;;;36.30;16.00;;;;;;;;;;5052410;28;20021;-69
2022/03/20 03:37:43;;;;;;;36.20;16.70;;;;;;;;;;5052089;28;20028;-69
2022/03/20 03:40:09;;;;;;;19.98;11.48;;;;;;;;;;5051971;28;20024;-69
2022/03/20 03:42:35;;;;;;;37.75;17.85;;;;;;;;;;5052424;28;20021;-69
2022/03/20 03:45:02;;;;;;;37.58;16.77;;;;;;;;;;5052221;28;20382;-68
2022/03/20 03:47:28;;;;;;;34.42;16.13;;;;;;;;;;5052631;28;20530;-69
2022/03/20 03:49:54;;;;;;;38.50;16.38;;;;;;;;;;5051697;28;20048;-69
2022/03/20 03:52:19;;;;;;;39.85;16.85;;;;;;;;;;5052947;28;20074;-69
2022/03/20 03:54:44;;;;;;;29.10;14.15;;;;;;;;;;5052193;28;20486;-69
2022/03/20 03:57:10;;;;;;;40.88;17.65;;;;;;;;;;5051068;28;20025;-69
2022/03/20 03:59:35;;;;;;;42.55;17.95;;;;;;;;;;5052455;28;20021;-69
2022/03/20 04:02:01;;;;;;;30.65;14.27;;;;;;;;;;5052925;28;20033;-69
2022/03/20 04:04:26;;;;;;;40.97;18.23;;;;;;;;;;5052604;28;20097;-70
2022/03/20 04:06:51;;;;;;;35.58;17.83;;;;;;;;;;5052032;28;20663;-69
2022/03/20 04:09:17;;;;;;;35.17;15.82;;;;;;;;;;5052718;28;20488;-70
2022/03/20 04:11:42;;;;;;;36.42;16.73;;;;;;;;;;5050644;28;20053;-68
2022/03/20 04:14:08;;;;;;;42.47;18.40;;;;;;;;;;5052492;28;20044;-69
2022/03/20 04:16:33;;;;;;;32.42;13.25;;;;;;;;;;5052732;28;20021;-70
2022/03/20 04:18:59;;;;;;;40.22;16.02;;;;;;;;;;5051740;28;20111;-69
2022/03/20 04:21:24;;;;;;;37.93;16.50;;;;;;;;;;5052342;28;20037;-69
2022/03/20 04:23:49;;;;;;;33.55;17.13;;;;;;;;;;5052116;28;20248;-69
2022/03/20 04:26:23;;;;;;;38.13;17.00;;;;;;;;;;5053096;28;20005;-69
2022/03/20 04:28:50;;;;;;;38.13;17.73;;;;;;;;;;5052025;28;20021;-68
2022/03/20 04:31:15;;;;;;;44.88;18.63;;;;;;;;;;5053253;28;20047;-69
2022/03/20 04:33:44;;;;;;;30.75;15.60;;;;;;;;;;5051862;28;20016;-69
2022/03/20 04:36:09;;;;;;;38.65;18.23;;;;;;;;;;5052103;28;20025;-69
2022/03/20 04:38:35;;;;;;;36.22;14.95;;;;;;;;;;5051922;28;20031;-69
2022/03/20 04:41:00;;;;;;;38.60;18.75;;;;;;;;;;5051768;28;20037;-69
2022/03/20 04:43:27;;;;;;;38.92;18.00;;;;;;;;;;5051711;28;20036;-69
2022/03/20 04:45:52;;;;;;;30.48;12.90;;;;;;;;;;5050884;28;20020;-69
2022/03/20 04:59:13;;;;;;;35.72;17.67;;;;;;;;;;5052151;28;20028;-70
2022/03/20 05:01:39;;;;;;;34.65;17.58;;;;;;;;;;5051790;28;20021;-69
2022/03/20 05:04:04;;;;;;;49.47;19.48;;;;;;;;;;5051851;28;20021;-69
2022/03/20 05:06:30;;;;;;;44.00;19.50;;;;;;;;;;5052269;28;20536;-70
2022/03/20 05:13:19;;;;;;;46.15;18.90;;;;;;;;;;5050639;28;20017;-69
2022/03/20 05:14:25;;;;;;;28.75;13.88;;;;;;;;;;5052115;28;20417;-69
2022/03/20 05:16:54;;;;;;;49.83;20.20;;;;;;;;;;5051506;28;20028;-69
2022/03/20 05:19:19;;;;;;;41.70;17.77;;;;;;;;;;5051075;28;20021;-69
2022/03/20 05:21:45;;;;;;;42.53;18.70;;;;;;;;;;5050583;28;20031;-69
2022/03/20 05:24:13;;;;;;;41.05;19.90;;;;;;;;;;5051035;28;20016;-69
2022/03/20 05:26:38;;;;;;;45.05;18.63;;;;;;;;;;5050539;28;20021;-68
2022/03/20 05:29:03;;;;;;;29.02;12.80;;;;;;;;;;5050526;28;20105;-69
2022/03/20 05:31:29;;;;;;;40.75;18.23;;;;;;;;;;5051126;28;20104;-68
2022/03/20 05:33:55;;;;;;;42.03;19.05;;;;;;;;;;5051057;28;20473;-68
2022/03/20 05:36:20;;;;;;;38.75;16.55;;;;;;;;;;5051406;28;20025;-69
2022/03/20 05:38:45;;;;;;;22.23;10.82;;;;;;;;;;5050519;28;20044;-68
2022/03/20 05:43:54;;;;;;;41.45;19.15;;;;;;;;;;5051907;28;20090;-69
2022/03/20 05:46:19;;;;;;;40.15;16.52;;;;;;;;;;5051580;28;20013;-69
2022/03/20 05:48:45;;;;;;;43.13;19.52;;;;;;;;;;5050783;28;20063;-69
2022/03/20 05:51:15;;;;;;;44.20;19.10;;;;;;;;;;5049544;28;20025;-69
2022/03/20 05:53:40;;;;;;;37.58;18.58;;;;;;;;;;5050437;28;20021;-69
2022/03/20 05:58:49;;;;;;;43.33;19.90;;;;;;;;;;5053957;28;20044;-69
2022/03/20 06:01:14;;;;;;;41.95;19.73;;;;;;;;;;5054773;28;20469;-69
2022/03/20 06:03:39;;;;;;;47.95;21.13;;;;;;;;;;5054774;28;20129;-69
2022/03/20 06:06:07;;;;;;;36.30;12.17;;;;;;;;;;5054309;28;20162;-69
2022/03/20 06:08:33;;;;;;;31.48;12.80;;;;;;;;;;5054588;28;20285;-69
2022/03/20 06:10:58;;;;;;;38.65;17.92;;;;;;;;;;5054080;28;20020;-69
2022/03/20 06:13:24;;;;;;;45.00;18.33;;;;;;;;;;5053107;28;20025;-68
2022/03/20 06:15:49;;;;;;;36.55;17.65;;;;;;;;;;5053579;28;20025;-69
2022/03/20 06:18:14;;;;;;;44.33;18.67;;;;;;;;;;5054613;28;20440;-69
2022/03/20 06:20:39;;;;;;;37.13;15.02;;;;;;;;;;5054105;28;20056;-69
2022/03/20 06:23:04;;;;;;;35.72;15.80;;;;;;;;;;5052310;28;20111;-68
2022/03/20 06:25:30;;;;;;;46.03;19.25;;;;;;;;;;5053837;28;20017;-69
2022/03/20 06:28:00;;;;;;;43.80;18.88;;;;;;;;;;5054389;28;20040;-68
2022/03/20 06:30:25;;;;;;;32.10;14.27;;;;;;;;;;5054283;28;20096;-69
2022/03/20 06:32:50;;;;;;;41.38;19.17;;;;;;;;;;5053552;28;20103;-69
2022/03/20 06:35:19;;;;;;;43.28;19.38;;;;;;;;;;5053440;28;20032;-69
2022/03/20 06:37:45;;;;;;;35.08;17.55;;;;;;;;;;5053225;28;20040;-69
2022/03/20 06:40:11;;;;;;;43.00;18.27;;;;;;;;;;5052935;28;20075;-69
2022/03/20 06:42:37;;;;;;;41.92;20.42;;;;;;;;;;5053324;28;20021;-69
2022/03/20 06:45:03;;;;;;;43.67;18.65;;;;;;;;;;5052948;28;20035;-69
2022/03/20 06:47:32;;;;;;;43.38;21.02;;;;;;;;;;5053593;28;20021;-69
2022/03/20 06:49:57;;;;;;;43.67;18.25;;;;;;;;;;5052492;28;20363;-69
2022/03/20 06:52:22;;;;;;;46.15;21.85;;;;;;;;;;5053003;28;20052;-69
2022/03/20 06:54:50;;;;;;;41.70;19.13;;;;;;;;;;5053057;28;20021;-69
2022/03/20 06:57:20;;;;;;;36.90;19.30;;;;;;;;;;5053044;28;20025;-69
2022/03/20 06:59:45;;;;;;;45.00;20.98;;;;;;;;;;5053118;28;20017;-69
2022/03/20 07:02:11;;;;;;;25.95;12.18;;;;;;;;;;5052509;28;20032;-69
2022/03/20 07:04:36;;;;;;;38.72;19.27;;;;;;;;;;5052998;28;20041;-69
2022/03/20 07:07:02;;;;;;;43.97;22.48;;;;;;;;;;5052699;28;20071;-69
2022/03/20 07:09:27;;;;;;;42.38;22.20;;;;;;;;;;5052047;28;20013;-69
2022/03/20 07:11:52;;;;;;;40.03;21.33;;;;;;;;;;5052931;28;20056;-69
2022/03/20 07:14:18;;;;;;;30.85;14.63;;;;;;;;;;5052914;28;20115;-69
2022/03/20 07:16:44;;;;;;;43.58;22.98;;;;;;;;;;5053079;28;20392;-69
2022/03/20 07:19:10;;;;;;;41.60;20.98;;;;;;;;;;5052524;28;20028;-70
2022/03/20 07:21:35;;;;;;;36.40;19.70;;;;;;;;;;5052274;28;20017;-70
2022/03/20 07:24:01;;;;;;;43.00;20.30;;;;;;;;;;5052367;28;20485;-70
2022/03/20 07:31:54;;;;;;;31.65;15.02;;;;;;;;;;5052422;28;20096;-71
2022/03/20 07:34:19;;;;;;;27.75;13.35;;;;;;;;;;5052358;28;20033;-70
2022/03/20 07:36:45;;;;;;;39.92;21.55;;;;;;;;;;5052295;28;20028;-69
2022/03/20 07:39:10;;;;;;;40.47;21.63;;;;;;;;;;5051195;28;20077;-70
2022/03/20 07:41:35;;;;;;;38.53;19.05;;;;;;;;;;5051485;28;20100;-70
2022/03/20 07:44:00;;;;;;;44.67;22.63;;;;;;;;;;5052494;28;20228;-70
2022/03/20 07:46:25;;;;;;;38.80;20.77;;;;;;;;;;5052140;28;20362;-70
2022/03/20 07:48:51;;;;;;;43.75;22.08;;;;;;;;;;5034282;28;20107;-71
2022/03/20 07:51:17;;;;;;;43.30;23.20;;;;;;;;;;5051909;28;20103;-70
2022/03/20 07:53:42;;;;;;;39.70;20.17;;;;;;;;;;5052312;28;20096;-70
2022/03/20 07:56:07;;;;;;;44.25;22.45;;;;;;;;;;5052394;28;20016;-71
2022/03/20 07:58:32;;;;;;;47.07;22.33;;;;;;;;;;5051615;28;20020;-71
2022/03/20 08:00:57;;;;;;;37.22;21.63;;;;;;;;;;5051390;28;20317;-71
2022/03/20 08:03:23;;;;;;;42.38;23.88;;;;;;;;;;5051354;28;20013;-71
2022/03/20 08:05:48;;;;;;;39.50;20.50;;;;;;;;;;5051921;28;20025;-71
2022/03/20 08:08:16;;;;;;;30.48;14.75;;;;;;;;;;5051943;28;20023;-71
2022/03/20 08:10:41;;;;;;;36.78;23.50;;;;;;;;;;5051428;28;20103;-70
2022/03/20 08:13:08;;;;;;;40.83;22.15;;;;;;;;;;5052135;28;20052;-71
2022/03/20 08:15:33;;;;;;;38.10;21.80;;;;;;;;;;5052292;28;20029;-71
2022/03/20 08:17:59;;;;;;;36.47;17.92;;;;;;;;;;5051625;28;20025;-71
2022/03/20 08:20:24;;;;;;;38.22;22.38;;;;;;;;;;5050835;28;20021;-71
2022/03/20 08:22:49;;;;;;;42.07;21.90;;;;;;;;;;5052146;28;20505;-70
2022/03/20 08:25:14;;;;;;;38.90;21.40;;;;;;;;;;5051921;28;20268;-71
2022/03/20 08:27:47;;;;;;;27.15;11.95;;;;;;;;;;5052368;28;20020;-71
2022/03/20 08:30:17;;;;;;;32.97;17.98;;;;;;;;;;5051087;28;20488;-71
2022/03/20 08:32:42;;;;;;;40.47;21.85;;;;;;;;;;5051889;28;20024;-71
2022/03/20 08:35:08;;;;;;;37.83;21.52;;;;;;;;;;5052255;28;20021;-71
2022/03/20 08:37:35;;;;;;;41.40;24.27;;;;;;;;;;5033694;28;20024;-71
2022/03/20 08:40:00;;;;;;;29.25;15.00;;;;;;;;;;5051608;28;20583;-70
2022/03/20 08:42:26;;;;;;;43.38;22.73;;;;;;;;;;5033314;28;20017;-71
2022/03/20 08:44:52;;;;;;;38.38;15.65;;;;;;;;;;5051539;28;20319;-71
2022/03/20 08:47:17;;;;;;;40.28;16.90;;;;;;;;;;5051138;28;20024;-71
2022/03/20 08:49:43;;;;;;;44.38;20.75;;;;;;;;;;5051302;28;20021;-71
2022/03/20 08:52:08;;;;;;;37.17;17.77;;;;;;;;;;5051519;28;20539;-71
2022/03/20 08:54:33;;;;;;;22.45;11.07;;;;;;;;;;5050798;28;20260;-71
2022/03/20 08:57:00;;;;;;;40.88;20.25;;;;;;;;;;5051094;28;20082;-71
2022/03/20 08:59:25;;;;;;;43.42;22.00;;;;;;;;;;5050841;28;20044;-71
2022/03/20 09:01:50;;;;;;;33.08;14.07;;;;;;;;;;5050863;28;20508;-70
2022/03/20 09:04:15;;;;;;;38.70;20.00;;;;;;;;;;5050613;28;20489;-71
2022/03/20 09:06:43;;;;;;;53.40;20.00;;;;;;;;;;5050949;28;20248;-70
2022/03/20 09:09:08;;;;;;;37.28;18.10;;;;;;;;;;5051003;28;20309;-71
2022/03/20 09:11:33;;;;;;;45.53;18.35;;;;;;;;;;5050942;28;20037;-70
2022/03/20 09:13:58;;;;;;;36.55;17.30;;;;;;;;;;5051081;28;20028;-70
2022/03/20 09:19:08;;;;;;;42.13;20.42;;;;;;;;;;5049940;28;20032;-69
2022/03/20 09:21:34;;;;;;;36.90;15.07;;;;;;;;;;5050076;28;20063;-69
2022/03/20 09:24:00;;;;;;;53.42;21.85;;;;;;;;;;5050874;28;20017;-70
2022/03/20 09:26:26;;;;;;;41.60;21.95;;;;;;;;;;5050389;28;20066;-69
2022/03/20 09:28:51;;;;;;;62.00;23.73;;;;;;;;;;5050561;28;20040;-70
2022/03/20 09:31:16;;;;;;;31.10;16.48;;;;;;;;;;5050180;28;20029;-69
2022/03/20 09:33:42;;;;;;;38.97;18.20;;;;;;;;;;5050913;28;20035;-70
2022/03/20 09:36:08;;;;;;;51.42;19.85;;;;;;;;;;5050330;28;20100;-69
2022/03/20 09:38:34;;;;;;;48.33;20.88;;;;;;;;;;5049894;28;20025;-69
2022/03/20 09:41:00;;;;;;;32.92;12.27;;;;;;;;;;5050153;28;20032;-68
2022/03/20 09:43:26;;;;;;;44.10;17.10;;;;;;;;;;5050461;28;20410;-68
2022/03/20 09:45:52;;;;;;;35.72;15.15;;;;;;;;;;5050102;28;20028;-68
2022/03/20 09:48:18;;;;;;;38.33;18.15;;;;;;;;;;5050177;28;20016;-69
2022/03/20 09:50:43;;;;;;;28.00;13.10;;;;;;;;;;5049972;28;20064;-69
2022/03/20 09:53:09;;;;;;;58.20;25.50;;;;;;;;;;5050098;28;20013;-69
2022/03/20 09:55:34;;;;;;;35.88;15.88;;;;;;;;;;5050326;28;20025;-70
2022/03/20 09:58:00;;;;;;;26.77;12.38;;;;;;;;;;5050250;28;20024;-70
2022/03/20 10:00:25;;;;;;;37.42;16.83;;;;;;;;;;5031682;28;20029;-70
2022/03/20 10:02:51;;;;;;;40.83;18.98;;;;;;;;;;5050083;28;20017;-70
2022/03/20 10:05:20;;;;;;;41.85;16.20;;;;;;;;;;5049738;28;20020;-70
2022/03/20 10:07:45;;;;;;;48.58;25.73;;;;;;;;;;5050084;28;20053;-71
2022/03/20 10:10:11;;;;;;;47.28;21.02;;;;;;;;;;5049522;28;20470;-71
2022/03/20 10:12:38;;;;;;;40.88;17.67;;;;;;;;;;5049931;28;20392;-70
2022/03/20 10:15:05;;;;;;;36.47;17.58;;;;;;;;;;5049951;28;20028;-71
2022/03/20 10:17:31;;;;;;;26.80;12.35;;;;;;;;;;5049694;28;20039;-71
2022/03/20 10:20:11;;;;;;;40.50;19.35;;;;;;;;;;5049609;28;20404;-71
2022/03/20 10:22:36;;;;;;;;;;;;;;;;;;5050142;28;20355;-71
2022/03/20 10:25:02;;;;;;;46.33;26.40;;;;;;;;;;5049872;28;19939;-72
2022/03/20 10:27:27;;;;;;;49.70;27.05;;;;;;;;;;5031965;28;20112;-71
2022/03/20 10:29:53;;;;;;;51.20;24.27;;;;;;;;;;5049476;28;20029;-71
2022/03/20 10:32:19;;;;;;;54.25;28.48;;;;;;;;;;5049619;28;20256;-70
2022/03/20 10:34:49;;;;;;;39.03;19.88;;;;;;;;;;5049786;28;20029;-71
2022/03/20 10:37:14;;;;;;;56.83;26.88;;;;;;;;;;5049790;28;20029;-73
2022/03/20 10:39:42;;;;;;;41.53;21.88;;;;;;;;;;5049729;28;20509;-71
2022/03/20 10:42:09;;;;;;;52.75;22.38;;;;;;;;;;5049580;28;20020;-71
2022/03/20 10:44:35;;;;;;;45.67;17.10;;;;;;;;;;5051893;28;20473;-71
2022/03/20 10:47:00;;;;;;;43.57;22.30;;;;;;;;;;5053226;28;20036;-71
2022/03/20 10:49:25;;;;;;;42.50;21.30;;;;;;;;;;5052576;28;20260;-71
2022/03/20 10:52:05;;;;;;;29.58;14.23;;;;;;;;;;5053110;28;20327;-71
2022/03/20 10:54:41;;;;;;;41.92;15.50;;;;;;;;;;5052893;28;20036;-71
2022/03/20 10:57:06;;;;;;;49.30;26.65;;;;;;;;;;5053098;28;20075;-71
2022/03/20 10:59:32;;;;;;;44.60;18.13;;;;;;;;;;5034608;28;20481;-71
2022/03/20 11:02:00;;;;;;;45.40;24.42;;;;;;;;;;5052786;28;20029;-71
2022/03/20 11:04:25;;;;;;;40.15;21.27;;;;;;;;;;5034650;28;20028;-71
2022/03/20 11:06:54;;;;;;;42.80;21.85;;;;;;;;;;5052688;28;20096;-71
2022/03/20 11:09:19;;;;;;;40.47;18.00;;;;;;;;;;5052453;28;20013;-72
2022/03/20 11:11:47;;;;;;;32.65;15.35;;;;;;;;;;5052613;28;20027;-71
2022/03/20 11:14:18;;;;;;;58.33;13.68;;;;;;;;;;5052574;28;20017;-71
2022/03/20 11:16:43;;;;;;;39.55;17.45;;;;;;;;;;5052860;28;20614;-72
2022/03/20 11:19:10;;;;;;;44.00;19.50;;;;;;;;;;5052472;28;20385;-71
2022/03/20 11:21:38;;;;;;;44.95;20.25;;;;;;;;;;5052463;28;20021;-71
2022/03/20 11:24:03;;;;;;;39.15;21.80;;;;;;;;;;5052778;28;20096;-71
2022/03/20 11:26:29;;;;;;;51.42;27.77;;;;;;;;;;5052069;28;20091;-71
2022/03/20 11:28:57;;;;;;;47.28;25.20;;;;;;;;;;5052126;28;20027;-73
2022/03/20 11:31:23;;;;;;;24.40;12.50;;;;;;;;;;5034512;28;20045;-72
2022/03/20 11:33:49;;;;;;;46.30;23.23;;;;;;;;;;5052286;28;20465;-72
2022/03/20 11:36:14;;;;;;;34.88;18.73;;;;;;;;;;5052069;28;20039;-72
2022/03/20 11:38:41;;;;;;;29.00;11.93;;;;;;;;;;5052246;28;20032;-72
2022/03/20 11:41:14;;;;;;;37.38;18.15;;;;;;;;;;5052366;28;20048;-74
2022/03/20 11:44:02;;;;;;;31.90;16.85;;;;;;;;;;5052213;28;20021;-73
2022/03/20 11:46:29;;;;;;;43.55;23.05;;;;;;;;;;5051507;28;20029;-71
2022/03/20 11:49:13;;;;;;;35.63;16.90;;;;;;;;;;5051908;28;20385;-71
2022/03/20 11:51:51;;;;;;;42.47;22.40;;;;;;;;;;5051827;28;20025;-72
2022/03/20 11:54:16;;;;;;;46.63;20.13;;;;;;;;;;5051751;28;20060;-71
2022/03/20 11:56:41;;;;;;;40.15;18.73;;;;;;;;;;5051111;28;20056;-72
2022/03/20 11:59:26;;;;;;;28.83;15.13;;;;;;;;;;5052319;28;20021;-71
2022/03/20 12:02:01;;;;;;;49.88;23.92;;;;;;;;;;5051558;28;20064;-71
2022/03/20 12:04:35;;;;;;;51.95;25.33;;;;;;;;;;5051597;28;20024;-72
2022/03/20 12:07:21;;;;;;;54.72;26.58;;;;;;;;;;5051926;28;20044;-71
2022/03/20 12:09:54;;;;;;;41.97;19.92;;;;;;;;;;5051470;28;20100;-70
2022/03/20 12:12:22;;;;;;;40.40;19.67;;;;;;;;;;5051515;28;20021;-71
2022/03/20 12:14:53;;;;;;;35.90;17.55;;;;;;;;;;5051663;28;20028;-70
2022/03/20 12:17:18;;;;;;;36.67;17.77;;;;;;;;;;5051314;28;20104;-70
2022/03/20 12:19:44;;;;;;;32.22;13.73;;;;;;;;;;5051511;28;20104;-70
2022/03/20 12:22:18;;;;;;;43.28;21.85;;;;;;;;;;5051270;28;20156;-69
2022/03/20 12:24:51;;;;;;;37.90;20.63;;;;;;;;;;5051724;28;20017;-69
2022/03/20 12:27:22;;;;;;;47.00;23.90;;;;;;;;;;5051456;28;20055;-70
2022/03/20 12:29:51;;;;;;;33.78;12.77;;;;;;;;;;5051150;28;20017;-70
2022/03/20 12:32:18;;;;;;;29.92;13.95;;;;;;;;;;5051222;28;20086;-70
2022/03/20 12:34:55;;;;;;;21.90;10.20;;;;;;;;;;5051526;28;20036;-70
2022/03/20 12:37:29;;;;;;;48.83;22.58;;;;;;;;;;5051577;28;20029;-69
2022/03/20 12:40:15;;;;;;;47.28;22.65;;;;;;;;;;5051305;28;20071;-68
2022/03/20 12:42:43;;;;;;;45.00;15.10;;;;;;;;;;5040473;28;20044;-70
2022/03/20 12:45:10;;;;;;;27.92;12.70;;;;;;;;;;5051922;28;20020;-70
2022/03/20 12:47:35;;;;;;;34.47;12.85;;;;;;;;;;5051129;28;20021;-70
2022/03/20 12:50:10;;;;;;;29.55;13.55;;;;;;;;;;5051119;28;20031;-69
2022/03/20 12:52:36;;;;;;;41.72;20.63;;;;;;;;;;5050788;28;20075;-70
2022/03/20 12:55:07;;;;;;;45.42;23.02;;;;;;;;;;5050849;28;20105;-70
2022/03/20 12:57:37;;;;;;;39.88;18.90;;;;;;;;;;5050814;28;20294;-69
2022/03/20 13:00:13;;;;;;;39.37;14.43;;;;;;;;;;5050230;28;20123;-69
2022/03/20 13:03:04;;;;;;;48.70;22.10;;;;;;;;;;5050800;28;20025;-70
2022/03/20 13:05:31;;;;;;;44.35;18.73;;;;;;;;;;5047513;28;20056;-70
2022/03/20 13:07:56;;;;;;;48.92;19.98;;;;;;;;;;5050425;28;20617;-70
2022/03/20 13:10:24;;;;;;;45.13;21.00;;;;;;;;;;5050203;28;20092;-73
2022/03/20 13:12:54;;;;;;;32.20;12.43;;;;;;;;;;5032463;28;20085;-71
2022/03/20 13:15:21;;;;;;;35.95;18.02;;;;;;;;;;5050206;28;20095;-71
2022/03/20 13:17:46;;;;;;;39.83;16.90;;;;;;;;;;5050516;28;20026;-71
2022/03/20 13:20:16;;;;;;;43.45;22.67;;;;;;;;;;5050144;28;20393;-71
2022/03/20 13:22:42;;;;;;;25.50;10.18;;;;;;;;;;5050601;28;20025;-69
2022/03/20 13:25:15;;;;;;;28.10;11.27;;;;;;;;;;5050644;28;20174;-69
2022/03/20 13:27:40;;;;;;;47.78;20.98;;;;;;;;;;5050559;28;20520;-70
2022/03/20 13:30:06;;;;;;;41.05;17.75;;;;;;;;;;5032264;28;20032;-69
2022/03/20 13:32:31;;;;;;;44.00;17.60;;;;;;;;;;5050032;28;20032;-69
2022/03/20 13:34:56;;;;;;;35.83;16.17;;;;;;;;;;5050411;28;20467;-70
2022/03/20 13:37:22;;;;;;;37.90;18.00;;;;;;;;;;5050083;28;20263;-71
2022/03/20 13:39:48;;;;;;;44.80;20.85;;;;;;;;;;5048387;28;20025;-71
2022/03/20 13:42:15;;;;;;;40.40;21.00;;;;;;;;;;5049932;28;20231;-71
2022/03/20 13:44:40;;;;;;;44.53;16.42;;;;;;;;;;5049697;28;20470;-71
2022/03/20 13:47:06;;;;;;;45.05;21.92;;;;;;;;;;5050142;28;20017;-71
2022/03/20 13:49:31;;;;;;;45.92;22.33;;;;;;;;;;5050021;28;20103;-71
2022/03/20 13:51:56;;;;;;;46.08;21.15;;;;;;;;;;5049908;28;20041;-71
2022/03/20 13:54:23;;;;;;;41.83;21.60;;;;;;;;;;5050123;28;20024;-71
2022/03/20 13:56:49;;;;;;;44.88;23.58;;;;;;;;;;5049965;28;20052;-69
2022/03/20 13:59:17;;;;;;;38.65;18.23;;;;;;;;;;5046441;28;20505;-72
2022/03/20 14:01:43;;;;;;;44.08;21.13;;;;;;;;;;5046788;28;20036;-69
2022/03/20 14:04:09;;;;;;;45.88;22.23;;;;;;;;;;5044804;28;20021;-71
2022/03/20 14:06:36;;;;;;;45.20;25.33;;;;;;;;;;5045478;28;20028;-71
2022/03/20 14:09:01;;;;;;;46.60;24.85;;;;;;;;;;5047605;28;20517;-71
2022/03/20 14:11:32;;;;;;;49.90;21.95;;;;;;;;;;5050759;28;20074;-71
2022/03/20 14:13:57;;;;;;;46.35;18.75;;;;;;;;;;5050192;28;20021;-70
2022/03/20 14:16:22;;;;;;;42.92;22.65;;;;;;;;;;5049016;28;20025;-71
2022/03/20 14:18:47;;;;;;;45.35;23.60;;;;;;;;;;5049791;28;20108;-71
2022/03/20 14:21:20;;;;;;;51.10;25.00;;;;;;;;;;5053538;28;20363;-71
2022/03/20 14:24:06;;;;;;;43.75;24.63;;;;;;;;;;5053212;28;20267;-71
2022/03/20 14:26:47;;;;;;;49.00;24.63;;;;;;;;;;5049269;28;20051;-71
2022/03/20 14:39:26;;;;;;;43.70;22.48;;;;;;;;;;5051862;28;20021;-71
2022/03/20 14:40:17;;;;;;;48.72;25.77;;;;;;;;;;5048141;28;20040;-71
2022/03/20 14:42:44;;;;;;;53.00;26.20;;;;;;;;;;5051382;28;20013;-71
2022/03/20 14:45:10;;;;;;;40.22;18.05;;;;;;;;;;5050834;28;20267;-72
2022/03/20 14:47:35;;;;;;;44.08;22.88;;;;;;;;;;5052555;28;20024;-71
2022/03/20 14:50:04;;;;;;;47.17;22.13;;;;;;;;;;5048626;28;20516;-72
2022/03/20 14:52:29;;;;;;;41.08;23.42;;;;;;;;;;5060586;28;20045;-72
2022/03/20 14:54:54;;;;;;;42.67;21.83;;;;;;;;;;5051219;28;20117;-73
2022/03/20 14:57:20;;;;;;;29.35;12.75;;;;;;;;;;5049842;28;20028;-72
2022/03/20 14:59:46;;;;;;;34.03;12.80;;;;;;;;;;5049407;28;20173;-71